sensor_id;sensor_type;location;lat;lon;timestamp;temperature;humidity
15296;DHT22;7749;49.964;7.890;2022-07-25T00:01:11;23.90;1.00
15296;DHT22;7749;49.964;7.890;2022-07-25T00:03:39;23.80;1.00
15296;DHT22;7749;49.964;7.890;2022-07-25T00:06:08;23.80;1.00
15296;DHT22;7749;49.964;7.890;2022-07-25T00:08:43;23.70;17.80
15296;DHT22;7749;49.964;7.890;2022-07-25T00:11:11;23.70;99.90
15296;DHT22;7749;49.964;7.890;2022-07-25T00:13:38;23.70;99.90
15296;DHT22;7749;49.964;7.890;2022-07-25T00:16:05;23.70;99.90
15296;DHT22;7749;49.964;7.890;2022-07-25T00:18:33;23.60;99.90
15296;DHT22;7749;49.964;7.890;2022-07-25T00:21:02;23.50;99.90
15296;DHT22;7749;49.964;7.890;2022-07-25T00:23:29;23.50;99.90
15296;DHT22;7749;49.964;7.890;2022-07-25T00:25:57;23.40;1.00
15296;DHT22;7749;49.964;7.890;2022-07-25T00:28:25;23.40;1.00
15296;DHT22;7749;49.964;7.890;2022-07-25T00:30:52;23.50;1.00
15296;DHT22;7749;49.964;7.890;2022-07-25T00:33:22;23.40;1.00
15296;DHT22;7749;49.964;7.890;2022-07-25T00:35:50;23.40;1.00
15296;DHT22;7749;49.964;7.890;2022-07-25T00:38:17;23.30;1.00
15296;DHT22;7749;49.964;7.890;2022-07-25T00:40:45;23.30;81.80
15296;DHT22;7749;49.964;7.890;2022-07-25T00:43:20;23.30;1.00
15296;DHT22;7749;49.964;7.890;2022-07-25T00:45:47;23.30;1.00
15296;DHT22;7749;49.964;7.890;2022-07-25T00:48:15;23.20;1.00
15296;DHT22;7749;49.964;7.890;2022-07-25T00:50:42;23.20;1.00
15296;DHT22;7749;49.964;7.890;2022-07-25T00:53:10;23.10;58.20
15296;DHT22;7749;49.964;7.890;2022-07-25T00:55:38;23.00;99.90
15296;DHT22;7749;49.964;7.890;2022-07-25T00:58:08;22.90;1.00
15296;DHT22;7749;49.964;7.890;2022-07-25T01:00:40;22.90;1.00
15296;DHT22;7749;49.964;7.890;2022-07-25T01:03:08;22.90;1.00
15296;DHT22;7749;49.964;7.890;2022-07-25T01:05:35;22.80;1.00
15296;DHT22;7749;49.964;7.890;2022-07-25T01:08:08;22.70;1.00
15296;DHT22;7749;49.964;7.890;2022-07-25T01:10:36;22.60;1.00
15296;DHT22;7749;49.964;7.890;2022-07-25T01:13:04;22.60;1.00
15296;DHT22;7749;49.964;7.890;2022-07-25T01:15:31;22.60;1.00
15296;DHT22;7749;49.964;7.890;2022-07-25T01:17:59;22.60;1.00
15296;DHT22;7749;49.964;7.890;2022-07-25T01:20:28;22.60;99.90
15296;DHT22;7749;49.964;7.890;2022-07-25T01:22:56;22.60;1.00
15296;DHT22;7749;49.964;7.890;2022-07-25T01:25:25;22.60;1.00
15296;DHT22;7749;49.964;7.890;2022-07-25T01:27:53;22.70;99.90
15296;DHT22;7749;49.964;7.890;2022-07-25T01:30:23;22.70;1.00
15296;DHT22;7749;49.964;7.890;2022-07-25T01:32:51;22.60;1.00
15296;DHT22;7749;49.964;7.890;2022-07-25T01:35:19;22.60;1.00
15296;DHT22;7749;49.964;7.890;2022-07-25T01:37:47;22.60;1.00
15296;DHT22;7749;49.964;7.890;2022-07-25T01:40:14;22.60;65.10
15296;DHT22;7749;49.964;7.890;2022-07-25T01:42:42;22.60;1.00
15296;DHT22;7749;49.964;7.890;2022-07-25T01:45:10;22.50;1.00
15296;DHT22;7749;49.964;7.890;2022-07-25T01:47:38;22.40;44.10
15296;DHT22;7749;49.964;7.890;2022-07-25T01:50:09;22.40;99.90
15296;DHT22;7749;49.964;7.890;2022-07-25T01:52:37;22.30;1.00
15296;DHT22;7749;49.964;7.890;2022-07-25T01:55:08;22.30;1.00
15296;DHT22;7749;49.964;7.890;2022-07-25T01:57:38;22.30;1.00
15296;DHT22;7749;49.964;7.890;2022-07-25T02:00:09;22.30;1.00
15296;DHT22;7749;49.964;7.890;2022-07-25T02:02:36;22.20;1.00
15296;DHT22;7749;49.964;7.890;2022-07-25T02:05:04;22.20;1.00
15296;DHT22;7749;49.964;7.890;2022-07-25T02:07:32;22.20;1.00
15296;DHT22;7749;49.964;7.890;2022-07-25T02:10:00;22.10;1.00
15296;DHT22;7749;49.964;7.890;2022-07-25T02:12:27;22.10;1.00
15296;DHT22;7749;49.964;7.890;2022-07-25T02:14:54;22.10;1.00
15296;DHT22;7749;49.964;7.890;2022-07-25T02:17:22;22.10;1.00
15296;DHT22;7749;49.964;7.890;2022-07-25T02:19:49;22.10;1.00
15296;DHT22;7749;49.964;7.890;2022-07-25T02:22:17;22.00;99.90
15296;DHT22;7749;49.964;7.890;2022-07-25T02:24:45;22.00;99.90
15296;DHT22;7749;49.964;7.890;2022-07-25T02:27:13;22.00;1.00
15296;DHT22;7749;49.964;7.890;2022-07-25T02:29:40;21.90;1.00
15296;DHT22;7749;49.964;7.890;2022-07-25T02:32:07;21.90;99.90
15296;DHT22;7749;49.964;7.890;2022-07-25T02:34:35;21.90;99.90
15296;DHT22;7749;49.964;7.890;2022-07-25T02:37:02;21.90;99.90
15296;DHT22;7749;49.964;7.890;2022-07-25T02:39:30;21.80;1.00
15296;DHT22;7749;49.964;7.890;2022-07-25T02:41:57;21.90;1.00
15296;DHT22;7749;49.964;7.890;2022-07-25T02:44:24;21.90;99.90
15296;DHT22;7749;49.964;7.890;2022-07-25T02:46:51;21.80;1.00
15296;DHT22;7749;49.964;7.890;2022-07-25T02:49:19;21.80;1.00
15296;DHT22;7749;49.964;7.890;2022-07-25T02:51:46;21.80;1.00
15296;DHT22;7749;49.964;7.890;2022-07-25T02:54:14;21.70;99.90
15296;DHT22;7749;49.964;7.890;2022-07-25T02:56:42;21.60;99.90
15296;DHT22;7749;49.964;7.890;2022-07-25T02:59:09;21.60;1.00
15296;DHT22;7749;49.964;7.890;2022-07-25T03:01:37;21.60;1.00
15296;DHT22;7749;49.964;7.890;2022-07-25T03:04:04;21.70;1.00
15296;DHT22;7749;49.964;7.890;2022-07-25T03:06:32;21.60;1.00
15296;DHT22;7749;49.964;7.890;2022-07-25T03:08:59;21.70;1.00
15296;DHT22;7749;49.964;7.890;2022-07-25T03:11:26;21.70;1.00
15296;DHT22;7749;49.964;7.890;2022-07-25T03:13:56;21.70;1.00
15296;DHT22;7749;49.964;7.890;2022-07-25T03:16:25;21.60;1.00
15296;DHT22;7749;49.964;7.890;2022-07-25T03:18:53;21.40;99.90
15296;DHT22;7749;49.964;7.890;2022-07-25T03:21:20;21.40;1.00
15296;DHT22;7749;49.964;7.890;2022-07-25T03:23:47;21.30;99.90
15296;DHT22;7749;49.964;7.890;2022-07-25T03:26:19;21.20;99.90
15296;DHT22;7749;49.964;7.890;2022-07-25T03:28:47;21.20;1.00
15296;DHT22;7749;49.964;7.890;2022-07-25T03:31:15;21.10;99.90
15296;DHT22;7749;49.964;7.890;2022-07-25T03:33:42;21.10;1.00
15296;DHT22;7749;49.964;7.890;2022-07-25T03:36:10;21.00;99.90
15296;DHT22;7749;49.964;7.890;2022-07-25T03:38:37;20.90;1.00
15296;DHT22;7749;49.964;7.890;2022-07-25T03:41:05;20.90;1.00
15296;DHT22;7749;49.964;7.890;2022-07-25T03:43:34;20.80;1.00
15296;DHT22;7749;49.964;7.890;2022-07-25T03:46:01;20.80;1.00
15296;DHT22;7749;49.964;7.890;2022-07-25T03:48:29;20.80;1.00
15296;DHT22;7749;49.964;7.890;2022-07-25T03:50:56;20.70;1.00
15296;DHT22;7749;49.964;7.890;2022-07-25T03:53:27;20.70;1.00
15296;DHT22;7749;49.964;7.890;2022-07-25T03:55:54;20.70;1.00
15296;DHT22;7749;49.964;7.890;2022-07-25T03:58:22;20.80;99.90
15296;DHT22;7749;49.964;7.890;2022-07-25T04:00:52;20.80;99.90
15296;DHT22;7749;49.964;7.890;2022-07-25T04:03:20;20.90;99.90
15296;DHT22;7749;49.964;7.890;2022-07-25T04:05:48;20.90;99.90
15296;DHT22;7749;49.964;7.890;2022-07-25T04:08:15;20.80;99.90
15296;DHT22;7749;49.964;7.890;2022-07-25T04:10:42;20.90;99.90
15296;DHT22;7749;49.964;7.890;2022-07-25T04:13:10;20.90;1.00
15296;DHT22;7749;49.964;7.890;2022-07-25T04:15:37;20.90;99.90
15296;DHT22;7749;49.964;7.890;2022-07-25T04:18:05;20.80;99.90
15296;DHT22;7749;49.964;7.890;2022-07-25T04:20:36;20.90;99.90
15296;DHT22;7749;49.964;7.890;2022-07-25T04:23:03;20.70;99.90
15296;DHT22;7749;49.964;7.890;2022-07-25T04:25:31;20.70;99.90
15296;DHT22;7749;49.964;7.890;2022-07-25T04:27:58;20.70;1.00
15296;DHT22;7749;49.964;7.890;2022-07-25T04:30:26;20.80;99.90
15296;DHT22;7749;49.964;7.890;2022-07-25T04:32:53;20.90;99.90
15296;DHT22;7749;49.964;7.890;2022-07-25T04:35:20;21.00;99.30
15296;DHT22;7749;49.964;7.890;2022-07-25T04:37:50;21.10;99.90
15296;DHT22;7749;49.964;7.890;2022-07-25T04:40:21;21.10;11.90
15296;DHT22;7749;49.964;7.890;2022-07-25T04:42:48;21.20;99.90
15296;DHT22;7749;49.964;7.890;2022-07-25T04:45:15;21.30;1.00
15296;DHT22;7749;49.964;7.890;2022-07-25T04:47:44;21.50;1.00
15296;DHT22;7749;49.964;7.890;2022-07-25T04:50:11;21.70;1.00
15296;DHT22;7749;49.964;7.890;2022-07-25T04:52:39;21.80;99.90
15296;DHT22;7749;49.964;7.890;2022-07-25T04:55:07;21.80;99.90
15296;DHT22;7749;49.964;7.890;2022-07-25T04:57:34;21.80;1.00
15296;DHT22;7749;49.964;7.890;2022-07-25T05:00:06;21.80;1.00
15296;DHT22;7749;49.964;7.890;2022-07-25T05:02:34;21.80;99.90
15296;DHT22;7749;49.964;7.890;2022-07-25T05:05:03;21.90;1.00
15296;DHT22;7749;49.964;7.890;2022-07-25T05:07:30;21.90;1.00
15296;DHT22;7749;49.964;7.890;2022-07-25T05:09:57;21.90;99.90
15296;DHT22;7749;49.964;7.890;2022-07-25T05:12:25;22.00;1.00
15296;DHT22;7749;49.964;7.890;2022-07-25T05:14:52;22.00;1.00
15296;DHT22;7749;49.964;7.890;2022-07-25T05:17:21;22.00;1.00
15296;DHT22;7749;49.964;7.890;2022-07-25T05:19:48;22.00;99.90
15296;DHT22;7749;49.964;7.890;2022-07-25T05:22:15;22.00;1.00
15296;DHT22;7749;49.964;7.890;2022-07-25T05:24:43;22.00;99.90
15296;DHT22;7749;49.964;7.890;2022-07-25T05:27:10;22.00;99.90
15296;DHT22;7749;49.964;7.890;2022-07-25T05:29:37;22.10;99.90
15296;DHT22;7749;49.964;7.890;2022-07-25T05:32:05;22.00;99.90
15296;DHT22;7749;49.964;7.890;2022-07-25T05:34:32;22.10;99.90
15296;DHT22;7749;49.964;7.890;2022-07-25T05:36:59;22.20;99.90
15296;DHT22;7749;49.964;7.890;2022-07-25T05:39:27;22.30;99.90
15296;DHT22;7749;49.964;7.890;2022-07-25T05:41:54;22.30;1.00
15296;DHT22;7749;49.964;7.890;2022-07-25T05:44:22;22.40;99.90
15296;DHT22;7749;49.964;7.890;2022-07-25T05:46:49;22.40;1.00
15296;DHT22;7749;49.964;7.890;2022-07-25T05:49:16;22.40;1.00
15296;DHT22;7749;49.964;7.890;2022-07-25T05:51:44;22.40;1.00
15296;DHT22;7749;49.964;7.890;2022-07-25T05:54:11;22.40;1.00
15296;DHT22;7749;49.964;7.890;2022-07-25T05:56:39;22.40;1.00
15296;DHT22;7749;49.964;7.890;2022-07-25T05:59:06;22.60;1.00
15296;DHT22;7749;49.964;7.890;2022-07-25T06:01:34;22.60;99.90
15296;DHT22;7749;49.964;7.890;2022-07-25T06:04:01;22.70;1.00
15296;DHT22;7749;49.964;7.890;2022-07-25T06:06:29;22.70;1.00
15296;DHT22;7749;49.964;7.890;2022-07-25T06:08:58;22.70;1.00
15296;DHT22;7749;49.964;7.890;2022-07-25T06:11:26;22.80;1.00
15296;DHT22;7749;49.964;7.890;2022-07-25T06:13:57;23.00;90.80
15296;DHT22;7749;49.964;7.890;2022-07-25T06:16:24;23.00;1.00
15296;DHT22;7749;49.964;7.890;2022-07-25T06:18:51;23.10;1.00
15296;DHT22;7749;49.964;7.890;2022-07-25T06:21:19;23.30;1.00
15296;DHT22;7749;49.964;7.890;2022-07-25T06:23:46;23.40;1.00
15296;DHT22;7749;49.964;7.890;2022-07-25T06:26:13;23.50;94.40
15296;DHT22;7749;49.964;7.890;2022-07-25T06:28:41;23.60;1.00
15296;DHT22;7749;49.964;7.890;2022-07-25T06:31:08;23.60;1.00
15296;DHT22;7749;49.964;7.890;2022-07-25T06:33:36;23.70;99.90
15296;DHT22;7749;49.964;7.890;2022-07-25T06:36:05;23.70;1.00
15296;DHT22;7749;49.964;7.890;2022-07-25T06:38:32;23.70;1.00
15296;DHT22;7749;49.964;7.890;2022-07-25T06:41:00;23.80;1.00
15296;DHT22;7749;49.964;7.890;2022-07-25T06:43:27;23.90;1.00
15296;DHT22;7749;49.964;7.890;2022-07-25T06:45:54;24.00;99.90
15296;DHT22;7749;49.964;7.890;2022-07-25T06:48:22;24.10;99.90
15296;DHT22;7749;49.964;7.890;2022-07-25T06:50:51;24.10;1.00
15296;DHT22;7749;49.964;7.890;2022-07-25T06:53:18;24.20;1.00
15296;DHT22;7749;49.964;7.890;2022-07-25T06:55:45;24.30;1.00
15296;DHT22;7749;49.964;7.890;2022-07-25T06:58:13;24.40;1.00
15296;DHT22;7749;49.964;7.890;2022-07-25T07:00:40;24.50;1.00
15296;DHT22;7749;49.964;7.890;2022-07-25T07:03:08;24.60;1.00
15296;DHT22;7749;49.964;7.890;2022-07-25T07:05:35;24.70;99.90
15296;DHT22;7749;49.964;7.890;2022-07-25T07:08:03;24.90;99.90
15296;DHT22;7749;49.964;7.890;2022-07-25T07:10:32;25.00;99.90
15296;DHT22;7749;49.964;7.890;2022-07-25T07:13:10;25.20;1.00
15296;DHT22;7749;49.964;7.890;2022-07-25T07:15:42;25.30;1.00
15296;DHT22;7749;49.964;7.890;2022-07-25T07:18:10;25.40;1.00
15296;DHT22;7749;49.964;7.890;2022-07-25T07:20:37;25.40;99.90
15296;DHT22;7749;49.964;7.890;2022-07-25T07:23:04;25.50;99.90
15296;DHT22;7749;49.964;7.890;2022-07-25T07:25:32;25.60;99.90
15296;DHT22;7749;49.964;7.890;2022-07-25T07:28:00;25.70;1.00
15296;DHT22;7749;49.964;7.890;2022-07-25T07:30:27;25.80;1.00
15296;DHT22;7749;49.964;7.890;2022-07-25T07:33:15;25.90;1.00
15296;DHT22;7749;49.964;7.890;2022-07-25T07:35:43;26.00;1.00
15296;DHT22;7749;49.964;7.890;2022-07-25T07:38:11;26.10;1.00
15296;DHT22;7749;49.964;7.890;2022-07-25T07:40:38;26.10;1.00
15296;DHT22;7749;49.964;7.890;2022-07-25T07:43:05;26.20;1.00
15296;DHT22;7749;49.964;7.890;2022-07-25T07:45:33;26.40;1.00
15296;DHT22;7749;49.964;7.890;2022-07-25T07:48:01;26.60;1.00
15296;DHT22;7749;49.964;7.890;2022-07-25T07:50:29;26.70;1.00
15296;DHT22;7749;49.964;7.890;2022-07-25T07:52:59;26.90;1.00
15296;DHT22;7749;49.964;7.890;2022-07-25T07:55:27;27.10;99.90
15296;DHT22;7749;49.964;7.890;2022-07-25T07:58:12;27.20;99.90
15296;DHT22;7749;49.964;7.890;2022-07-25T08:00:45;27.30;99.90
15296;DHT22;7749;49.964;7.890;2022-07-25T08:03:18;27.30;99.90
15296;DHT22;7749;49.964;7.890;2022-07-25T08:05:47;27.50;99.90
15296;DHT22;7749;49.964;7.890;2022-07-25T08:08:15;27.80;99.90
15296;DHT22;7749;49.964;7.890;2022-07-25T08:10:44;27.90;99.90
15296;DHT22;7749;49.964;7.890;2022-07-25T08:15:46;28.20;1.00
15296;DHT22;7749;49.964;7.890;2022-07-25T08:18:14;28.40;1.00
15296;DHT22;7749;49.964;7.890;2022-07-25T08:20:47;28.50;1.00
15296;DHT22;7749;49.964;7.890;2022-07-25T08:23:15;28.70;1.00
15296;DHT22;7749;49.964;7.890;2022-07-25T08:25:44;28.90;1.00
15296;DHT22;7749;49.964;7.890;2022-07-25T08:28:14;29.10;1.00
15296;DHT22;7749;49.964;7.890;2022-07-25T08:30:42;29.10;1.00
15296;DHT22;7749;49.964;7.890;2022-07-25T08:33:11;29.40;1.00
15296;DHT22;7749;49.964;7.890;2022-07-25T08:35:51;29.50;1.00
15296;DHT22;7749;49.964;7.890;2022-07-25T08:38:20;29.50;1.00
15296;DHT22;7749;49.964;7.890;2022-07-25T08:40:49;29.80;1.00
15296;DHT22;7749;49.964;7.890;2022-07-25T08:43:20;30.00;1.00
15296;DHT22;7749;49.964;7.890;2022-07-25T08:45:50;30.10;1.00
15296;DHT22;7749;49.964;7.890;2022-07-25T08:48:32;30.30;1.00
15296;DHT22;7749;49.964;7.890;2022-07-25T08:51:01;30.60;1.00
15296;DHT22;7749;49.964;7.890;2022-07-25T08:53:29;30.90;1.00
15296;DHT22;7749;49.964;7.890;2022-07-25T08:56:02;31.20;1.00
15296;DHT22;7749;49.964;7.890;2022-07-25T08:58:41;31.70;1.00
15296;DHT22;7749;49.964;7.890;2022-07-25T09:01:11;32.00;1.00
15296;DHT22;7749;49.964;7.890;2022-07-25T09:03:41;32.20;1.00
15296;DHT22;7749;49.964;7.890;2022-07-25T09:06:20;32.20;1.00
15296;DHT22;7749;49.964;7.890;2022-07-25T09:08:52;32.10;1.00
15296;DHT22;7749;49.964;7.890;2022-07-25T09:11:33;32.00;1.00
15296;DHT22;7749;49.964;7.890;2022-07-25T09:14:06;31.90;1.00
15296;DHT22;7749;49.964;7.890;2022-07-25T09:16:43;31.70;1.00
15296;DHT22;7749;49.964;7.890;2022-07-25T09:19:16;31.60;1.00
15296;DHT22;7749;49.964;7.890;2022-07-25T09:21:55;31.60;1.00
15296;DHT22;7749;49.964;7.890;2022-07-25T09:24:24;31.70;1.00
15296;DHT22;7749;49.964;7.890;2022-07-25T09:26:53;31.90;1.00
15296;DHT22;7749;49.964;7.890;2022-07-25T09:29:32;32.20;1.00
15296;DHT22;7749;49.964;7.890;2022-07-25T09:32:00;32.60;1.00
15296;DHT22;7749;49.964;7.890;2022-07-25T09:37:01;33.10;99.90
15296;DHT22;7749;49.964;7.890;2022-07-25T09:39:38;33.50;99.90
15296;DHT22;7749;49.964;7.890;2022-07-25T09:47:49;33.40;99.90
15296;DHT22;7749;49.964;7.890;2022-07-25T09:50:21;33.30;99.90
15296;DHT22;7749;49.964;7.890;2022-07-25T09:52:51;33.40;99.90
15296;DHT22;7749;49.964;7.890;2022-07-25T09:55:20;33.70;99.90
15296;DHT22;7749;49.964;7.890;2022-07-25T09:57:48;34.00;99.90
15296;DHT22;7749;49.964;7.890;2022-07-25T10:00:20;34.20;99.90
15296;DHT22;7749;49.964;7.890;2022-07-25T10:03:10;34.40;99.90
15296;DHT22;7749;49.964;7.890;2022-07-25T10:08:38;34.60;99.90
15296;DHT22;7749;49.964;7.890;2022-07-25T10:11:26;34.70;99.90
15296;DHT22;7749;49.964;7.890;2022-07-25T10:13:54;35.00;99.90
15296;DHT22;7749;49.964;7.890;2022-07-25T10:16:24;35.50;99.90
15296;DHT22;7749;49.964;7.890;2022-07-25T10:18:53;36.10;99.90
15296;DHT22;7749;49.964;7.890;2022-07-25T10:21:23;36.10;99.90
15296;DHT22;7749;49.964;7.890;2022-07-25T10:24:07;35.70;99.90
15296;DHT22;7749;49.964;7.890;2022-07-25T10:26:37;35.40;99.90
15296;DHT22;7749;49.964;7.890;2022-07-25T10:29:10;35.10;99.90
15296;DHT22;7749;49.964;7.890;2022-07-25T10:31:41;35.00;99.90
15296;DHT22;7749;49.964;7.890;2022-07-25T10:34:27;35.10;99.90
15296;DHT22;7749;49.964;7.890;2022-07-25T10:36:56;35.60;99.90
15296;DHT22;7749;49.964;7.890;2022-07-25T10:39:23;36.10;99.90
15296;DHT22;7749;49.964;7.890;2022-07-25T10:41:53;36.50;99.90
15296;DHT22;7749;49.964;7.890;2022-07-25T10:44:21;36.10;99.90
15296;DHT22;7749;49.964;7.890;2022-07-25T10:46:48;35.60;99.90
15296;DHT22;7749;49.964;7.890;2022-07-25T10:49:18;35.30;99.90
15296;DHT22;7749;49.964;7.890;2022-07-25T10:51:57;35.30;99.90
15296;DHT22;7749;49.964;7.890;2022-07-25T10:54:32;35.40;99.90
15296;DHT22;7749;49.964;7.890;2022-07-25T10:57:00;35.20;99.90
15296;DHT22;7749;49.964;7.890;2022-07-25T10:59:36;35.10;99.90
15296;DHT22;7749;49.964;7.890;2022-07-25T11:02:07;35.00;99.90
15296;DHT22;7749;49.964;7.890;2022-07-25T11:04:36;35.20;99.90
15296;DHT22;7749;49.964;7.890;2022-07-25T11:07:14;35.80;99.90
15296;DHT22;7749;49.964;7.890;2022-07-25T11:09:43;36.00;99.90
15296;DHT22;7749;49.964;7.890;2022-07-25T11:12:17;36.00;99.90
15296;DHT22;7749;49.964;7.890;2022-07-25T11:14:44;36.40;99.90
15296;DHT22;7749;49.964;7.890;2022-07-25T11:17:23;37.30;99.90
15296;DHT22;7749;49.964;7.890;2022-07-25T11:22:30;37.60;99.90
15296;DHT22;7749;49.964;7.890;2022-07-25T11:24:58;37.70;99.90
15296;DHT22;7749;49.964;7.890;2022-07-25T11:27:31;37.70;99.90
15296;DHT22;7749;49.964;7.890;2022-07-25T11:30:16;37.60;99.90
15296;DHT22;7749;49.964;7.890;2022-07-25T11:32:52;37.20;99.90
15296;DHT22;7749;49.964;7.890;2022-07-25T11:35:23;37.80;99.90
15296;DHT22;7749;49.964;7.890;2022-07-25T11:37:51;36.70;99.90
15296;DHT22;7749;49.964;7.890;2022-07-25T11:40:20;35.70;99.90
15296;DHT22;7749;49.964;7.890;2022-07-25T11:42:54;35.10;99.90
15296;DHT22;7749;49.964;7.890;2022-07-25T11:45:30;35.30;99.90
15296;DHT22;7749;49.964;7.890;2022-07-25T11:48:11;35.40;99.90
15296;DHT22;7749;49.964;7.890;2022-07-25T11:50:42;35.40;99.90
15296;DHT22;7749;49.964;7.890;2022-07-25T11:53:12;35.80;99.90
15296;DHT22;7749;49.964;7.890;2022-07-25T11:55:41;36.30;99.90
15296;DHT22;7749;49.964;7.890;2022-07-25T11:58:10;36.00;99.90
15296;DHT22;7749;49.964;7.890;2022-07-25T12:00:44;36.50;99.90
15296;DHT22;7749;49.964;7.890;2022-07-25T12:03:14;37.10;99.90
15296;DHT22;7749;49.964;7.890;2022-07-25T12:05:48;36.70;99.90
15296;DHT22;7749;49.964;7.890;2022-07-25T12:08:17;35.50;99.90
15296;DHT22;7749;49.964;7.890;2022-07-25T12:10:46;35.00;99.90
15296;DHT22;7749;49.964;7.890;2022-07-25T12:13:26;34.40;99.90
15296;DHT22;7749;49.964;7.890;2022-07-25T12:15:58;33.60;99.90
15296;DHT22;7749;49.964;7.890;2022-07-25T12:18:26;33.10;99.90
15296;DHT22;7749;49.964;7.890;2022-07-25T12:20:54;33.00;99.90
15296;DHT22;7749;49.964;7.890;2022-07-25T12:23:21;32.80;99.90
15296;DHT22;7749;49.964;7.890;2022-07-25T12:25:49;32.50;99.90
15296;DHT22;7749;49.964;7.890;2022-07-25T12:28:16;32.30;99.90
15296;DHT22;7749;49.964;7.890;2022-07-25T12:30:45;32.50;99.90
15296;DHT22;7749;49.964;7.890;2022-07-25T12:33:13;32.80;99.90
15296;DHT22;7749;49.964;7.890;2022-07-25T12:35:42;33.00;99.90
15296;DHT22;7749;49.964;7.890;2022-07-25T12:38:09;33.30;99.90
15296;DHT22;7749;49.964;7.890;2022-07-25T12:40:37;33.40;99.90
15296;DHT22;7749;49.964;7.890;2022-07-25T12:43:05;33.80;99.90
15296;DHT22;7749;49.964;7.890;2022-07-25T12:45:32;35.10;99.90
15296;DHT22;7749;49.964;7.890;2022-07-25T12:48:00;37.00;99.90
15296;DHT22;7749;49.964;7.890;2022-07-25T12:50:27;36.70;99.90
15296;DHT22;7749;49.964;7.890;2022-07-25T12:52:55;37.20;99.90
15296;DHT22;7749;49.964;7.890;2022-07-25T12:55:22;37.40;99.90
15296;DHT22;7749;49.964;7.890;2022-07-25T12:57:50;37.60;99.90
15296;DHT22;7749;49.964;7.890;2022-07-25T13:00:19;39.70;99.90
15296;DHT22;7749;49.964;7.890;2022-07-25T13:02:48;41.10;99.90
15296;DHT22;7749;49.964;7.890;2022-07-25T13:05:18;42.20;99.90
15296;DHT22;7749;49.964;7.890;2022-07-25T13:07:45;41.50;99.90
15296;DHT22;7749;49.964;7.890;2022-07-25T13:10:15;39.50;99.90
15296;DHT22;7749;49.964;7.890;2022-07-25T13:12:43;40.90;99.90
15296;DHT22;7749;49.964;7.890;2022-07-25T13:15:12;42.10;99.90
15296;DHT22;7749;49.964;7.890;2022-07-25T13:17:40;41.00;99.90
15296;DHT22;7749;49.964;7.890;2022-07-25T13:20:11;39.50;99.90
15296;DHT22;7749;49.964;7.890;2022-07-25T13:22:41;39.30;99.90
15296;DHT22;7749;49.964;7.890;2022-07-25T13:25:09;38.20;99.90
15296;DHT22;7749;49.964;7.890;2022-07-25T13:27:39;37.20;99.90
15296;DHT22;7749;49.964;7.890;2022-07-25T13:30:07;37.00;99.90
15296;DHT22;7749;49.964;7.890;2022-07-25T13:32:34;38.30;99.90
15296;DHT22;7749;49.964;7.890;2022-07-25T13:35:05;40.00;99.90
15296;DHT22;7749;49.964;7.890;2022-07-25T13:37:33;39.30;99.90
15296;DHT22;7749;49.964;7.890;2022-07-25T13:40:00;38.20;99.90
15296;DHT22;7749;49.964;7.890;2022-07-25T13:42:33;37.80;99.90
15296;DHT22;7749;49.964;7.890;2022-07-25T13:45:00;39.30;99.90
15296;DHT22;7749;49.964;7.890;2022-07-25T13:47:30;38.40;99.90
15296;DHT22;7749;49.964;7.890;2022-07-25T13:49:58;38.30;99.90
15296;DHT22;7749;49.964;7.890;2022-07-25T13:52:25;36.90;99.90
15296;DHT22;7749;49.964;7.890;2022-07-25T13:54:52;38.20;99.90
15296;DHT22;7749;49.964;7.890;2022-07-25T13:57:20;38.20;99.90
15296;DHT22;7749;49.964;7.890;2022-07-25T13:59:47;37.90;99.90
15296;DHT22;7749;49.964;7.890;2022-07-25T14:02:15;37.40;99.90
15296;DHT22;7749;49.964;7.890;2022-07-25T14:04:42;37.30;99.90
15296;DHT22;7749;49.964;7.890;2022-07-25T14:07:10;37.50;99.90
15296;DHT22;7749;49.964;7.890;2022-07-25T14:09:37;37.70;99.90
15296;DHT22;7749;49.964;7.890;2022-07-25T14:12:07;37.30;99.90
15296;DHT22;7749;49.964;7.890;2022-07-25T14:14:37;38.40;99.90
15296;DHT22;7749;49.964;7.890;2022-07-25T14:17:04;39.50;99.90
15296;DHT22;7749;49.964;7.890;2022-07-25T14:19:35;40.60;99.90
15296;DHT22;7749;49.964;7.890;2022-07-25T14:22:03;41.60;99.90
15296;DHT22;7749;49.964;7.890;2022-07-25T14:24:30;41.90;99.90
15296;DHT22;7749;49.964;7.890;2022-07-25T14:26:57;41.70;99.90
15296;DHT22;7749;49.964;7.890;2022-07-25T14:29:25;41.20;99.90
15296;DHT22;7749;49.964;7.890;2022-07-25T14:31:56;41.20;99.90
15296;DHT22;7749;49.964;7.890;2022-07-25T14:34:24;41.60;99.90
15296;DHT22;7749;49.964;7.890;2022-07-25T14:36:51;40.30;99.90
15296;DHT22;7749;49.964;7.890;2022-07-25T14:39:21;40.70;99.90
15296;DHT22;7749;49.964;7.890;2022-07-25T14:41:49;40.80;99.90
15296;DHT22;7749;49.964;7.890;2022-07-25T14:44:16;41.80;99.90
15296;DHT22;7749;49.964;7.890;2022-07-25T14:46:45;40.40;99.90
15296;DHT22;7749;49.964;7.890;2022-07-25T14:49:15;41.60;99.90
15296;DHT22;7749;49.964;7.890;2022-07-25T14:51:42;42.20;97.70
15296;DHT22;7749;49.964;7.890;2022-07-25T14:54:11;41.90;98.10
15296;DHT22;7749;49.964;7.890;2022-07-25T14:56:39;41.00;99.40
15296;DHT22;7749;49.964;7.890;2022-07-25T14:59:09;39.00;99.90
15296;DHT22;7749;49.964;7.890;2022-07-25T15:01:37;39.00;99.90
15296;DHT22;7749;49.964;7.890;2022-07-25T15:04:05;38.00;99.90
15296;DHT22;7749;49.964;7.890;2022-07-25T15:06:33;37.00;99.90
15296;DHT22;7749;49.964;7.890;2022-07-25T15:09:01;37.00;99.90
15296;DHT22;7749;49.964;7.890;2022-07-25T15:11:29;37.20;99.90
15296;DHT22;7749;49.964;7.890;2022-07-25T15:13:56;37.10;99.90
15296;DHT22;7749;49.964;7.890;2022-07-25T15:16:24;36.80;99.90
15296;DHT22;7749;49.964;7.890;2022-07-25T15:18:51;35.80;99.90
15296;DHT22;7749;49.964;7.890;2022-07-25T15:21:39;35.10;99.90
15296;DHT22;7749;49.964;7.890;2022-07-25T15:24:06;35.50;99.90
15296;DHT22;7749;49.964;7.890;2022-07-25T15:26:35;35.90;99.90
15296;DHT22;7749;49.964;7.890;2022-07-25T15:29:06;35.90;99.90
15296;DHT22;7749;49.964;7.890;2022-07-25T15:31:35;36.30;99.90
15296;DHT22;7749;49.964;7.890;2022-07-25T15:34:03;36.10;99.90
15296;DHT22;7749;49.964;7.890;2022-07-25T15:36:30;37.40;99.90
15296;DHT22;7749;49.964;7.890;2022-07-25T15:39:00;38.40;99.90
15296;DHT22;7749;49.964;7.890;2022-07-25T15:41:29;38.30;99.90
15296;DHT22;7749;49.964;7.890;2022-07-25T15:43:58;38.40;99.90
15296;DHT22;7749;49.964;7.890;2022-07-25T15:46:25;39.20;99.90
15296;DHT22;7749;49.964;7.890;2022-07-25T15:48:55;40.10;99.90
15296;DHT22;7749;49.964;7.890;2022-07-25T15:51:24;40.50;99.90
15296;DHT22;7749;49.964;7.890;2022-07-25T15:53:51;37.90;99.90
15296;DHT22;7749;49.964;7.890;2022-07-25T15:56:19;37.80;99.90
15296;DHT22;7749;49.964;7.890;2022-07-25T15:58:47;36.00;99.90
15296;DHT22;7749;49.964;7.890;2022-07-25T16:01:15;35.50;99.90
15296;DHT22;7749;49.964;7.890;2022-07-25T16:03:42;35.70;99.90
15296;DHT22;7749;49.964;7.890;2022-07-25T16:06:10;35.50;99.90
15296;DHT22;7749;49.964;7.890;2022-07-25T16:08:44;35.30;99.90
15296;DHT22;7749;49.964;7.890;2022-07-25T16:11:12;35.20;99.90
15296;DHT22;7749;49.964;7.890;2022-07-25T16:13:40;34.80;99.90
15296;DHT22;7749;49.964;7.890;2022-07-25T16:16:08;35.60;99.90
15296;DHT22;7749;49.964;7.890;2022-07-25T16:18:36;35.70;99.90
15296;DHT22;7749;49.964;7.890;2022-07-25T16:21:04;35.70;99.90